Sedillo, New Mexico
Current Conditions -  °F | °C
As of 6:52 AM on Saturday 20 Dec 2014 (Local Time) from KABQ Reporting Station
Broken Clouds Broken Clouds  
Wind Chill: 21°   Ceiling: 24000
Heat Index: 26°   Visibility: 10mi
Dew Point: 21°   Wind: 5mph
Humidity: 81%   Direction: 180°S
Pressure: 30.16"   Gusts: NA
Location:  34.9842°N, 106.322°W
Report Text: KABQ 201352Z 18004KT 10SM BKN240 M03/M06 A3016 RMK AO2 SLP223 T10331061
Loading
Personal Weather Stations






























Interactive Weather Map New forecast layout! Learn more

10-Day Weather Forecast

Advertisements
Track Severe Weather on mobile